sensor_id;sensor_type;location;lat;lon;timestamp;pressure;altitude;pressure_sealevel;temperature;humidity
56719;BME280;42597;40.636;0.278;2022-09-03T00:07:46;96830.50;;;20.24;82.02
56719;BME280;42597;40.636;0.278;2022-09-03T00:10:35;96826.38;;;20.35;81.60
56719;BME280;42597;40.636;0.278;2022-09-03T00:13:04;96820.25;;;20.28;81.43
56719;BME280;42597;40.636;0.278;2022-09-03T00:15:33;96823.47;;;20.23;81.39
56719;BME280;42597;40.636;0.278;2022-09-03T00:18:11;96815.34;;;20.39;79.97
56719;BME280;42597;40.636;0.278;2022-09-03T00:20:39;96815.19;;;20.50;78.74
56719;BME280;42597;40.636;0.278;2022-09-03T00:23:10;96811.69;;;20.45;78.75
56719;BME280;42597;40.636;0.278;2022-09-03T00:25:40;96815.94;;;20.50;78.63
56719;BME280;42597;40.636;0.278;2022-09-03T00:28:12;96816.72;;;20.94;76.63
56719;BME280;42597;40.636;0.278;2022-09-03T00:30:41;96817.66;;;20.87;78.28
56719;BME280;42597;40.636;0.278;2022-09-03T00:33:17;96817.00;;;20.80;77.80
56719;BME280;42597;40.636;0.278;2022-09-03T00:38:28;96816.19;;;20.36;80.78
56719;BME280;42597;40.636;0.278;2022-09-03T00:46:48;96832.59;;;20.39;81.81
56719;BME280;42597;40.636;0.278;2022-09-03T00:49:33;96832.25;;;21.44;78.12
56719;BME280;42597;40.636;0.278;2022-09-03T01:00:18;96836.81;;;20.20;81.75
56719;BME280;42597;40.636;0.278;2022-09-03T01:03:08;96840.84;;;20.12;82.83
56719;BME280;42597;40.636;0.278;2022-09-03T01:15:54;96845.78;;;20.48;80.96
56719;BME280;42597;40.636;0.278;2022-09-03T01:26:28;96848.75;;;21.80;74.34
56719;BME280;42597;40.636;0.278;2022-09-03T01:29:12;96845.19;;;22.16;74.77
56719;BME280;42597;40.636;0.278;2022-09-03T01:45:28;96859.13;;;22.25;72.80
56719;BME280;42597;40.636;0.278;2022-09-03T01:48:18;96863.28;;;21.21;74.39
56719;BME280;42597;40.636;0.278;2022-09-03T01:50:52;96869.09;;;20.36;78.50
56719;BME280;42597;40.636;0.278;2022-09-03T01:56:27;96856.47;;;21.49;74.73
56719;BME280;42597;40.636;0.278;2022-09-03T01:59:21;96862.53;;;21.60;74.85
56719;BME280;42597;40.636;0.278;2022-09-03T02:02:07;96869.31;;;21.92;72.91
56719;BME280;42597;40.636;0.278;2022-09-03T02:04:34;96870.59;;;20.88;75.21
56719;BME280;42597;40.636;0.278;2022-09-03T02:07:01;96878.16;;;20.33;78.43
56719;BME280;42597;40.636;0.278;2022-09-03T02:09:27;96879.41;;;20.99;76.78
56719;BME280;42597;40.636;0.278;2022-09-03T02:12:07;96873.38;;;21.28;74.77
56719;BME280;42597;40.636;0.278;2022-09-03T02:14:36;96888.16;;;20.70;75.85
56719;BME280;42597;40.636;0.278;2022-09-03T02:17:03;96889.09;;;20.84;76.24
56719;BME280;42597;40.636;0.278;2022-09-03T02:19:30;96888.91;;;22.10;72.41
56719;BME280;42597;40.636;0.278;2022-09-03T02:21:56;96887.59;;;22.35;71.65
56719;BME280;42597;40.636;0.278;2022-09-03T02:24:24;96889.41;;;22.25;71.69
56719;BME280;42597;40.636;0.278;2022-09-03T02:26:52;96893.97;;;22.32;71.44
56719;BME280;42597;40.636;0.278;2022-09-03T02:29:17;96887.78;;;22.28;71.43
56719;BME280;42597;40.636;0.278;2022-09-03T02:31:44;96895.03;;;21.02;72.04
56719;BME280;42597;40.636;0.278;2022-09-03T02:34:10;96889.25;;;21.96;72.66
56719;BME280;42597;40.636;0.278;2022-09-03T02:36:42;96883.34;;;20.98;72.10
56719;BME280;42597;40.636;0.278;2022-09-03T02:39:10;96884.44;;;20.57;74.21
56719;BME280;42597;40.636;0.278;2022-09-03T02:41:36;96883.72;;;20.77;74.18
56719;BME280;42597;40.636;0.278;2022-09-03T02:46:39;96881.28;;;20.08;77.03
56719;BME280;42597;40.636;0.278;2022-09-03T02:49:07;96872.84;;;20.23;76.21
56719;BME280;42597;40.636;0.278;2022-09-03T02:51:36;96867.41;;;20.19;76.11
56719;BME280;42597;40.636;0.278;2022-09-03T02:54:02;96867.56;;;20.08;76.74
56719;BME280;42597;40.636;0.278;2022-09-03T02:56:28;96869.38;;;20.18;76.18
56719;BME280;42597;40.636;0.278;2022-09-03T02:58:54;96868.75;;;19.80;77.97
56719;BME280;42597;40.636;0.278;2022-09-03T03:01:20;96866.63;;;20.18;76.25
56719;BME280;42597;40.636;0.278;2022-09-03T03:03:46;96859.81;;;20.97;73.38
56719;BME280;42597;40.636;0.278;2022-09-03T03:06:12;96851.66;;;21.53;70.06
56719;BME280;42597;40.636;0.278;2022-09-03T03:08:39;96845.03;;;22.23;68.60
56719;BME280;42597;40.636;0.278;2022-09-03T03:11:05;96848.84;;;22.09;68.01
56719;BME280;42597;40.636;0.278;2022-09-03T03:13:31;96846.66;;;22.37;67.01
56719;BME280;42597;40.636;0.278;2022-09-03T03:16:02;96847.38;;;21.88;66.17
56719;BME280;42597;40.636;0.278;2022-09-03T03:18:28;96844.00;;;21.81;69.28
56719;BME280;42597;40.636;0.278;2022-09-03T03:20:54;96841.19;;;21.48;67.66
56719;BME280;42597;40.636;0.278;2022-09-03T03:23:20;96841.41;;;21.74;67.63
56719;BME280;42597;40.636;0.278;2022-09-03T03:25:46;96837.53;;;21.15;67.09
56719;BME280;42597;40.636;0.278;2022-09-03T03:28:12;96830.38;;;21.17;67.66
56719;BME280;42597;40.636;0.278;2022-09-03T03:30:42;96828.19;;;20.89;70.67
56719;BME280;42597;40.636;0.278;2022-09-03T03:33:08;96835.88;;;20.54;70.50
56719;BME280;42597;40.636;0.278;2022-09-03T03:35:35;96840.75;;;20.19;72.18
56719;BME280;42597;40.636;0.278;2022-09-03T03:38:00;96842.06;;;20.11;72.72
56719;BME280;42597;40.636;0.278;2022-09-03T03:40:26;96837.88;;;20.03;73.04
56719;BME280;42597;40.636;0.278;2022-09-03T03:42:52;96821.31;;;20.10;72.71
56719;BME280;42597;40.636;0.278;2022-09-03T03:45:18;96823.53;;;20.42;71.77
56719;BME280;42597;40.636;0.278;2022-09-03T03:47:44;96824.69;;;20.88;69.97
56719;BME280;42597;40.636;0.278;2022-09-03T03:50:10;96822.56;;;20.96;67.50
56719;BME280;42597;40.636;0.278;2022-09-03T03:52:35;96819.41;;;21.74;66.50
56719;BME280;42597;40.636;0.278;2022-09-03T03:55:01;96817.72;;;21.24;66.54
56719;BME280;42597;40.636;0.278;2022-09-03T03:57:29;96820.63;;;21.73;65.07
56719;BME280;42597;40.636;0.278;2022-09-03T03:59:55;96818.09;;;20.39;69.40
56719;BME280;42597;40.636;0.278;2022-09-03T04:02:21;96822.56;;;20.76;69.29
56719;BME280;42597;40.636;0.278;2022-09-03T04:04:46;96814.41;;;20.49;69.11
56719;BME280;42597;40.636;0.278;2022-09-03T04:07:12;96808.91;;;20.92;69.35
56719;BME280;42597;40.636;0.278;2022-09-03T04:09:37;96819.16;;;20.68;68.44
56719;BME280;42597;40.636;0.278;2022-09-03T04:12:03;96813.22;;;20.50;70.22
56719;BME280;42597;40.636;0.278;2022-09-03T04:14:33;96816.78;;;20.47;68.63
56719;BME280;42597;40.636;0.278;2022-09-03T04:17:00;96814.59;;;21.22;66.67
56719;BME280;42597;40.636;0.278;2022-09-03T04:19:25;96805.16;;;21.23;68.03
56719;BME280;42597;40.636;0.278;2022-09-03T04:21:54;96826.66;;;20.17;69.40
56719;BME280;42597;40.636;0.278;2022-09-03T04:24:20;96814.25;;;20.09;70.35
56719;BME280;42597;40.636;0.278;2022-09-03T04:26:46;96812.59;;;20.39;69.55
56719;BME280;42597;40.636;0.278;2022-09-03T04:29:11;96826.31;;;20.15;69.73
56719;BME280;42597;40.636;0.278;2022-09-03T04:31:37;96820.13;;;20.35;69.22
56719;BME280;42597;40.636;0.278;2022-09-03T04:34:03;96825.22;;;20.09;69.95
56719;BME280;42597;40.636;0.278;2022-09-03T04:36:32;96827.38;;;20.21;70.13
56719;BME280;42597;40.636;0.278;2022-09-03T04:39:00;96830.00;;;20.05;70.74
56719;BME280;42597;40.636;0.278;2022-09-03T04:41:29;96829.31;;;20.48;69.48
56719;BME280;42597;40.636;0.278;2022-09-03T04:43:56;96833.94;;;20.04;70.96
56719;BME280;42597;40.636;0.278;2022-09-03T04:46:25;96843.56;;;19.89;71.88
56719;BME280;42597;40.636;0.278;2022-09-03T04:48:52;96846.53;;;19.75;72.35
56719;BME280;42597;40.636;0.278;2022-09-03T04:51:24;96843.06;;;19.70;72.22
56719;BME280;42597;40.636;0.278;2022-09-03T04:53:59;96842.94;;;19.78;72.82
56719;BME280;42597;40.636;0.278;2022-09-03T04:56:28;96848.31;;;19.85;72.29
56719;BME280;42597;40.636;0.278;2022-09-03T04:58:58;96858.28;;;20.02;71.31
56719;BME280;42597;40.636;0.278;2022-09-03T05:01:27;96871.81;;;19.86;71.86
56719;BME280;42597;40.636;0.278;2022-09-03T05:03:54;96872.91;;;19.61;72.85
56719;BME280;42597;40.636;0.278;2022-09-03T05:06:20;96871.06;;;19.82;72.16
56719;BME280;42597;40.636;0.278;2022-09-03T05:08:49;96876.03;;;20.17;70.79
56719;BME280;42597;40.636;0.278;2022-09-03T05:11:16;96873.13;;;20.55;69.20
56719;BME280;42597;40.636;0.278;2022-09-03T05:13:42;96868.88;;;20.74;68.52
56719;BME280;42597;40.636;0.278;2022-09-03T05:16:10;96872.75;;;20.77;68.92
56719;BME280;42597;40.636;0.278;2022-09-03T05:18:37;96866.72;;;20.85;68.45
56719;BME280;42597;40.636;0.278;2022-09-03T05:21:08;96867.56;;;21.02;68.14
56719;BME280;42597;40.636;0.278;2022-09-03T05:23:39;96872.81;;;21.56;66.83
56719;BME280;42597;40.636;0.278;2022-09-03T05:26:07;96871.44;;;20.85;68.99
56719;BME280;42597;40.636;0.278;2022-09-03T05:28:38;96867.94;;;20.34;69.77
56719;BME280;42597;40.636;0.278;2022-09-03T05:31:18;96868.41;;;20.56;69.21
56719;BME280;42597;40.636;0.278;2022-09-03T05:33:46;96877.25;;;20.16;70.90
56719;BME280;42597;40.636;0.278;2022-09-03T05:36:17;96874.19;;;20.11;70.16
56719;BME280;42597;40.636;0.278;2022-09-03T05:38:44;96869.06;;;20.63;68.08
56719;BME280;42597;40.636;0.278;2022-09-03T05:41:11;96882.81;;;21.27;66.54
56719;BME280;42597;40.636;0.278;2022-09-03T05:43:39;96887.53;;;20.36;67.52
56719;BME280;42597;40.636;0.278;2022-09-03T05:46:13;96891.56;;;20.28;68.28
56719;BME280;42597;40.636;0.278;2022-09-03T05:48:41;96889.97;;;20.30;68.46
56719;BME280;42597;40.636;0.278;2022-09-03T05:51:14;96890.97;;;20.16;69.24
56719;BME280;42597;40.636;0.278;2022-09-03T05:53:41;96893.34;;;20.14;69.61
56719;BME280;42597;40.636;0.278;2022-09-03T05:56:10;96891.19;;;21.00;67.54
56719;BME280;42597;40.636;0.278;2022-09-03T05:58:41;96900.22;;;20.77;67.32
56719;BME280;42597;40.636;0.278;2022-09-03T06:03:42;96901.25;;;21.06;67.69
56719;BME280;42597;40.636;0.278;2022-09-03T06:06:08;96902.50;;;21.65;65.42
56719;BME280;42597;40.636;0.278;2022-09-03T06:08:35;96895.34;;;21.87;65.60
56719;BME280;42597;40.636;0.278;2022-09-03T06:11:03;96901.19;;;22.26;64.43
56719;BME280;42597;40.636;0.278;2022-09-03T06:13:30;96912.16;;;21.53;63.35
56719;BME280;42597;40.636;0.278;2022-09-03T06:16:01;96914.59;;;22.24;64.20
56719;BME280;42597;40.636;0.278;2022-09-03T06:18:28;96915.47;;;22.37;63.52
56719;BME280;42597;40.636;0.278;2022-09-03T06:20:58;96918.53;;;21.86;63.61
56719;BME280;42597;40.636;0.278;2022-09-03T06:23:24;96910.81;;;21.61;64.38
56719;BME280;42597;40.636;0.278;2022-09-03T06:26:05;96920.13;;;21.04;66.46
56719;BME280;42597;40.636;0.278;2022-09-03T06:28:32;96930.84;;;20.75;66.62
56719;BME280;42597;40.636;0.278;2022-09-03T06:30:59;96921.06;;;20.47;67.57
56719;BME280;42597;40.636;0.278;2022-09-03T06:33:30;96909.09;;;20.61;67.07
56719;BME280;42597;40.636;0.278;2022-09-03T06:35:58;96912.03;;;20.74;66.34
56719;BME280;42597;40.636;0.278;2022-09-03T06:38:25;96912.28;;;20.59;66.45
56719;BME280;42597;40.636;0.278;2022-09-03T06:40:55;96920.91;;;20.58;66.85
56719;BME280;42597;40.636;0.278;2022-09-03T06:43:22;96929.69;;;20.49;67.29
56719;BME280;42597;40.636;0.278;2022-09-03T06:45:59;96932.69;;;20.31;67.71
56719;BME280;42597;40.636;0.278;2022-09-03T06:48:26;96939.97;;;20.41;67.85
56719;BME280;42597;40.636;0.278;2022-09-03T06:50:56;96932.50;;;20.69;66.93
56719;BME280;42597;40.636;0.278;2022-09-03T06:53:27;96940.25;;;20.74;66.68
56719;BME280;42597;40.636;0.278;2022-09-03T06:55:59;96945.41;;;20.95;66.43
56719;BME280;42597;40.636;0.278;2022-09-03T06:58:28;96937.59;;;21.14;65.76
56719;BME280;42597;40.636;0.278;2022-09-03T07:01:02;96943.19;;;21.30;65.55
56719;BME280;42597;40.636;0.278;2022-09-03T07:03:31;96935.38;;;21.29;65.80
56719;BME280;42597;40.636;0.278;2022-09-03T07:06:05;96935.91;;;21.43;65.46
56719;BME280;42597;40.636;0.278;2022-09-03T07:08:31;96937.25;;;21.55;65.25
56719;BME280;42597;40.636;0.278;2022-09-03T07:11:06;96937.94;;;21.99;64.24
56719;BME280;42597;40.636;0.278;2022-09-03T07:13:40;96938.44;;;22.10;64.00
56719;BME280;42597;40.636;0.278;2022-09-03T07:16:13;96938.81;;;22.12;63.61
56719;BME280;42597;40.636;0.278;2022-09-03T07:18:39;96932.50;;;21.96;63.38
56719;BME280;42597;40.636;0.278;2022-09-03T07:21:07;96936.97;;;22.06;63.22
56719;BME280;42597;40.636;0.278;2022-09-03T07:23:34;96933.53;;;22.54;62.26
56719;BME280;42597;40.636;0.278;2022-09-03T07:26:05;96942.31;;;22.49;61.91
56719;BME280;42597;40.636;0.278;2022-09-03T07:28:34;96934.06;;;22.98;60.90
56719;BME280;42597;40.636;0.278;2022-09-03T07:31:07;96944.88;;;23.22;59.98
56719;BME280;42597;40.636;0.278;2022-09-03T07:33:33;96952.09;;;23.32;60.25
56719;BME280;42597;40.636;0.278;2022-09-03T07:36:08;96953.72;;;23.58;59.23
56719;BME280;42597;40.636;0.278;2022-09-03T07:38:35;96959.75;;;23.70;58.80
56719;BME280;42597;40.636;0.278;2022-09-03T07:41:03;96962.00;;;23.58;59.45
56719;BME280;42597;40.636;0.278;2022-09-03T07:43:33;96960.78;;;23.59;59.50
56719;BME280;42597;40.636;0.278;2022-09-03T07:46:00;96968.63;;;23.90;64.29
56719;BME280;42597;40.636;0.278;2022-09-03T07:48:26;96968.31;;;24.01;64.57
56719;BME280;42597;40.636;0.278;2022-09-03T07:50:52;96965.22;;;24.11;63.83
56719;BME280;42597;40.636;0.278;2022-09-03T07:53:24;96969.00;;;24.05;62.25
56719;BME280;42597;40.636;0.278;2022-09-03T07:55:49;96965.50;;;24.43;64.52
56719;BME280;42597;40.636;0.278;2022-09-03T07:58:15;96964.63;;;24.58;60.96
56719;BME280;42597;40.636;0.278;2022-09-03T08:00:42;96970.16;;;24.46;63.05
56719;BME280;42597;40.636;0.278;2022-09-03T08:03:08;96970.50;;;24.60;63.86
56719;BME280;42597;40.636;0.278;2022-09-03T08:05:35;96965.91;;;24.79;62.54
56719;BME280;42597;40.636;0.278;2022-09-03T08:08:02;96980.94;;;24.91;63.66
56719;BME280;42597;40.636;0.278;2022-09-03T08:10:28;96977.22;;;24.47;63.38
56719;BME280;42597;40.636;0.278;2022-09-03T08:12:57;96978.44;;;24.58;62.56
56719;BME280;42597;40.636;0.278;2022-09-03T08:15:23;96977.13;;;25.23;63.89
56719;BME280;42597;40.636;0.278;2022-09-03T08:17:49;96973.50;;;25.14;65.55
56719;BME280;42597;40.636;0.278;2022-09-03T08:20:15;96979.06;;;25.35;64.98
56719;BME280;42597;40.636;0.278;2022-09-03T08:22:40;96981.78;;;25.26;65.26
56719;BME280;42597;40.636;0.278;2022-09-03T08:25:06;96970.19;;;25.41;67.48
56719;BME280;42597;40.636;0.278;2022-09-03T08:27:32;96986.13;;;25.15;68.19
56719;BME280;42597;40.636;0.278;2022-09-03T08:29:57;96988.75;;;25.18;68.48
56719;BME280;42597;40.636;0.278;2022-09-03T08:32:23;96984.91;;;24.90;69.80
56719;BME280;42597;40.636;0.278;2022-09-03T08:34:49;96988.00;;;25.18;70.21
56719;BME280;42597;40.636;0.278;2022-09-03T08:37:16;96983.53;;;25.55;69.50
56719;BME280;42597;40.636;0.278;2022-09-03T08:39:43;96983.38;;;25.36;68.60
56719;BME280;42597;40.636;0.278;2022-09-03T08:44:52;96983.41;;;25.58;66.31
56719;BME280;42597;40.636;0.278;2022-09-03T08:47:33;96987.34;;;25.70;66.60
56719;BME280;42597;40.636;0.278;2022-09-03T08:50:22;96983.47;;;25.68;66.70
56719;BME280;42597;40.636;0.278;2022-09-03T08:52:52;96993.00;;;25.67;67.25
56719;BME280;42597;40.636;0.278;2022-09-03T08:55:41;96987.00;;;25.81;66.23
56719;BME280;42597;40.636;0.278;2022-09-03T09:11:19;96990.34;;;25.98;67.52
56719;BME280;42597;40.636;0.278;2022-09-03T09:13:53;96996.69;;;26.07;66.36
56719;BME280;42597;40.636;0.278;2022-09-03T09:16:47;96990.34;;;26.29;66.09
56719;BME280;42597;40.636;0.278;2022-09-03T09:22:02;97001.75;;;26.31;65.37
56719;BME280;42597;40.636;0.278;2022-09-03T09:24:39;97000.88;;;26.12;65.61
56719;BME280;42597;40.636;0.278;2022-09-03T09:27:06;97006.53;;;26.30;65.67
56719;BME280;42597;40.636;0.278;2022-09-03T09:29:35;97011.44;;;26.04;65.57
56719;BME280;42597;40.636;0.278;2022-09-03T09:32:02;97002.19;;;25.98;66.74
56719;BME280;42597;40.636;0.278;2022-09-03T09:34:34;97002.38;;;26.35;66.25
56719;BME280;42597;40.636;0.278;2022-09-03T09:37:03;97006.53;;;26.08;67.26
56719;BME280;42597;40.636;0.278;2022-09-03T09:39:30;97003.41;;;26.50;65.99
56719;BME280;42597;40.636;0.278;2022-09-03T09:41:57;97011.19;;;26.12;66.11
56719;BME280;42597;40.636;0.278;2022-09-03T09:44:25;97011.72;;;25.97;65.27
56719;BME280;42597;40.636;0.278;2022-09-03T09:46:50;97009.78;;;25.85;66.32
56719;BME280;42597;40.636;0.278;2022-09-03T09:49:37;97001.50;;;26.16;65.13
56719;BME280;42597;40.636;0.278;2022-09-03T09:52:10;96994.94;;;26.23;64.10
56719;BME280;42597;40.636;0.278;2022-09-03T09:54:37;96997.19;;;26.15;64.59
56719;BME280;42597;40.636;0.278;2022-09-03T09:57:06;97000.44;;;26.45;63.62
56719;BME280;42597;40.636;0.278;2022-09-03T09:59:33;97008.31;;;26.24;64.15
56719;BME280;42597;40.636;0.278;2022-09-03T10:02:14;97016.31;;;26.22;63.59
56719;BME280;42597;40.636;0.278;2022-09-03T10:04:44;97011.56;;;26.23;63.59
56719;BME280;42597;40.636;0.278;2022-09-03T10:07:26;97018.66;;;26.02;64.61
56719;BME280;42597;40.636;0.278;2022-09-03T10:10:05;97013.56;;;26.22;63.39
56719;BME280;42597;40.636;0.278;2022-09-03T10:12:44;97010.22;;;26.58;62.80
56719;BME280;42597;40.636;0.278;2022-09-03T10:15:46;97010.69;;;25.82;63.82
56719;BME280;42597;40.636;0.278;2022-09-03T10:21:14;96994.28;;;26.81;61.47
56719;BME280;42597;40.636;0.278;2022-09-03T10:26:23;96980.47;;;26.90;61.07
56719;BME280;42597;40.636;0.278;2022-09-03T10:29:03;96997.72;;;27.03;61.13
56719;BME280;42597;40.636;0.278;2022-09-03T10:40:30;96979.31;;;27.19;58.08
56719;BME280;42597;40.636;0.278;2022-09-03T10:50:29;96976.19;;;27.17;59.13
56719;BME280;42597;40.636;0.278;2022-09-03T10:53:06;96978.59;;;26.96;59.53
56719;BME280;42597;40.636;0.278;2022-09-03T10:58:47;96960.56;;;26.92;60.49
56719;BME280;42597;40.636;0.278;2022-09-03T11:02:05;96965.44;;;27.28;58.26
56719;BME280;42597;40.636;0.278;2022-09-03T11:09:26;96950.00;;;27.73;56.68
56719;BME280;42597;40.636;0.278;2022-09-03T11:12:04;96972.53;;;27.38;56.86
56719;BME280;42597;40.636;0.278;2022-09-03T11:14:39;96952.47;;;27.16;58.08
56719;BME280;42597;40.636;0.278;2022-09-03T11:17:13;96957.97;;;26.97;58.37
56719;BME280;42597;40.636;0.278;2022-09-03T11:19:55;96959.81;;;26.91;58.20
56719;BME280;42597;40.636;0.278;2022-09-03T11:22:23;96953.16;;;26.70;58.24
56719;BME280;42597;40.636;0.278;2022-09-03T11:24:55;96952.13;;;27.04;57.76
56719;BME280;42597;40.636;0.278;2022-09-03T11:40:28;96931.69;;;26.52;58.72
56719;BME280;42597;40.636;0.278;2022-09-03T11:43:46;96918.50;;;26.75;58.54
56719;BME280;42597;40.636;0.278;2022-09-03T11:48:44;96918.50;;;26.75;60.86
56719;BME280;42597;40.636;0.278;2022-09-03T11:51:32;96919.25;;;26.66;62.02
56719;BME280;42597;40.636;0.278;2022-09-03T11:56:45;96918.50;;;26.84;63.28
56719;BME280;42597;40.636;0.278;2022-09-03T11:59:24;96913.25;;;26.68;64.49
56719;BME280;42597;40.636;0.278;2022-09-03T12:01:55;96912.97;;;26.34;65.56
56719;BME280;42597;40.636;0.278;2022-09-03T12:18:03;96903.94;;;27.39;62.69
56719;BME280;42597;40.636;0.278;2022-09-03T12:20:44;96905.44;;;27.67;61.35
56719;BME280;42597;40.636;0.278;2022-09-03T12:23:11;96897.75;;;27.53;63.40
56719;BME280;42597;40.636;0.278;2022-09-03T12:25:45;96899.72;;;27.80;62.46
56719;BME280;42597;40.636;0.278;2022-09-03T12:28:16;96903.78;;;27.42;64.77
56719;BME280;42597;40.636;0.278;2022-09-03T12:30:44;96901.63;;;27.19;65.72
56719;BME280;42597;40.636;0.278;2022-09-03T12:33:12;96902.53;;;27.25;64.14
56719;BME280;42597;40.636;0.278;2022-09-03T12:35:38;96893.63;;;27.12;64.88
56719;BME280;42597;40.636;0.278;2022-09-03T12:38:04;96893.56;;;26.66;66.20
56719;BME280;42597;40.636;0.278;2022-09-03T12:40:30;96895.13;;;27.03;64.53
56719;BME280;42597;40.636;0.278;2022-09-03T12:43:13;96896.69;;;27.23;64.34
56719;BME280;42597;40.636;0.278;2022-09-03T12:45:45;96895.16;;;27.13;65.64
56719;BME280;42597;40.636;0.278;2022-09-03T12:48:16;96894.22;;;27.06;64.70
56719;BME280;42597;40.636;0.278;2022-09-03T12:50:43;96882.47;;;26.84;66.77
56719;BME280;42597;40.636;0.278;2022-09-03T12:53:13;96883.72;;;26.83;66.41
56719;BME280;42597;40.636;0.278;2022-09-03T12:55:46;96881.84;;;26.80;67.40
56719;BME280;42597;40.636;0.278;2022-09-03T13:03:43;96873.28;;;27.24;64.01
56719;BME280;42597;40.636;0.278;2022-09-03T13:06:14;96870.19;;;27.13;65.18
56719;BME280;42597;40.636;0.278;2022-09-03T13:08:50;96875.44;;;27.11;63.63
56719;BME280;42597;40.636;0.278;2022-09-03T13:11:20;96864.91;;;27.05;64.31
56719;BME280;42597;40.636;0.278;2022-09-03T13:13:54;96881.59;;;27.24;64.54
56719;BME280;42597;40.636;0.278;2022-09-03T13:19:39;96876.00;;;27.05;65.98
56719;BME280;42597;40.636;0.278;2022-09-03T13:22:40;96876.78;;;26.88;64.73
56719;BME280;42597;40.636;0.278;2022-09-03T13:25:27;96884.16;;;26.72;70.94
56719;BME280;42597;40.636;0.278;2022-09-03T13:31:25;96884.19;;;26.41;75.14
56719;BME280;42597;40.636;0.278;2022-09-03T13:34:14;96879.00;;;26.43;73.97
56719;BME280;42597;40.636;0.278;2022-09-03T13:36:48;96850.44;;;26.74;73.34
56719;BME280;42597;40.636;0.278;2022-09-03T13:39:32;96866.66;;;26.44;74.52
56719;BME280;42597;40.636;0.278;2022-09-03T13:42:10;96867.38;;;26.57;75.82
56719;BME280;42597;40.636;0.278;2022-09-03T13:47:42;96852.78;;;26.26;76.76
56719;BME280;42597;40.636;0.278;2022-09-03T13:50:38;96853.78;;;26.50;76.06
56719;BME280;42597;40.636;0.278;2022-09-03T13:53:13;96861.09;;;26.26;74.98
56719;BME280;42597;40.636;0.278;2022-09-03T13:55:52;96838.09;;;26.47;72.67
56719;BME280;42597;40.636;0.278;2022-09-03T14:01:05;96860.28;;;26.66;69.13
56719;BME280;42597;40.636;0.278;2022-09-03T14:03:44;96856.56;;;26.50;70.08
56719;BME280;42597;40.636;0.278;2022-09-03T14:14:51;96834.44;;;27.15;66.39
56719;BME280;42597;40.636;0.278;2022-09-03T14:20:02;96836.25;;;27.08;64.56
56719;BME280;42597;40.636;0.278;2022-09-03T14:25:15;96837.38;;;26.25;68.91
56719;BME280;42597;40.636;0.278;2022-09-03T14:27:42;96844.91;;;27.29;66.54
56719;BME280;42597;40.636;0.278;2022-09-03T14:30:28;96844.56;;;26.81;68.58
56719;BME280;42597;40.636;0.278;2022-09-03T14:33:00;96846.00;;;26.86;66.87
56719;BME280;42597;40.636;0.278;2022-09-03T14:41:29;96844.56;;;26.81;70.71
56719;BME280;42597;40.636;0.278;2022-09-03T14:44:10;96833.19;;;26.70;71.78
56719;BME280;42597;40.636;0.278;2022-09-03T14:49:42;96834.72;;;26.71;71.13
56719;BME280;42597;40.636;0.278;2022-09-03T14:54:56;96847.97;;;26.67;71.86
56719;BME280;42597;40.636;0.278;2022-09-03T14:57:35;96851.03;;;26.60;72.24
56719;BME280;42597;40.636;0.278;2022-09-03T15:03:17;96844.28;;;26.70;70.24
56719;BME280;42597;40.636;0.278;2022-09-03T15:06:22;96853.44;;;25.99;69.57
56719;BME280;42597;40.636;0.278;2022-09-03T15:08:54;96860.97;;;25.89;70.08
56719;BME280;42597;40.636;0.278;2022-09-03T15:11:27;96861.47;;;25.75;70.68
56719;BME280;42597;40.636;0.278;2022-09-03T15:14:28;96853.22;;;25.84;70.16
56719;BME280;42597;40.636;0.278;2022-09-03T15:20:23;96857.38;;;25.57;70.08
56719;BME280;42597;40.636;0.278;2022-09-03T15:36:02;96861.94;;;24.73;62.65
56719;BME280;42597;40.636;0.278;2022-09-03T15:41:39;96835.59;;;24.81;62.61
56719;BME280;42597;40.636;0.278;2022-09-03T15:44:16;96874.19;;;24.72;62.59
56719;BME280;42597;40.636;0.278;2022-09-03T15:55:08;96856.72;;;24.75;65.34
56719;BME280;42597;40.636;0.278;2022-09-03T15:57:59;96879.88;;;24.30;68.45
56719;BME280;42597;40.636;0.278;2022-09-03T16:00:49;96912.13;;;24.33;69.41
56719;BME280;42597;40.636;0.278;2022-09-03T16:03:19;96921.59;;;23.81;75.22
56719;BME280;42597;40.636;0.278;2022-09-03T16:05:48;96913.72;;;23.67;77.85
56719;BME280;42597;40.636;0.278;2022-09-03T16:11:41;96883.22;;;23.57;77.24
56719;BME280;42597;40.636;0.278;2022-09-03T16:14:20;96889.06;;;23.59;77.12
56719;BME280;42597;40.636;0.278;2022-09-03T16:19:53;96897.22;;;24.30;73.71
56719;BME280;42597;40.636;0.278;2022-09-03T16:22:28;96903.41;;;23.54;77.13
56719;BME280;42597;40.636;0.278;2022-09-03T16:30:07;96920.25;;;23.14;75.52
56719;BME280;42597;40.636;0.278;2022-09-03T16:32:50;96918.53;;;23.21;74.38
56719;BME280;42597;40.636;0.278;2022-09-03T16:38:17;96933.66;;;23.58;68.56
56719;BME280;42597;40.636;0.278;2022-09-03T16:51:23;96912.69;;;23.60;54.46
56719;BME280;42597;40.636;0.278;2022-09-03T16:56:54;96936.19;;;23.94;52.77
56719;BME280;42597;40.636;0.278;2022-09-03T17:16:33;96905.53;;;24.91;50.64
56719;BME280;42597;40.636;0.278;2022-09-03T17:19:13;96892.31;;;25.07;50.33
56719;BME280;42597;40.636;0.278;2022-09-03T17:21:54;96883.31;;;24.94;58.76
56719;BME280;42597;40.636;0.278;2022-09-03T17:24:32;96886.16;;;25.03;52.50
56719;BME280;42597;40.636;0.278;2022-09-03T17:45:50;96953.88;;;24.35;59.33
56719;BME280;42597;40.636;0.278;2022-09-03T17:48:52;96944.16;;;24.30;60.77
56719;BME280;42597;40.636;0.278;2022-09-03T17:54:11;96954.28;;;23.95;62.73
56719;BME280;42597;40.636;0.278;2022-09-03T17:56:50;96942.63;;;24.17;61.53
56719;BME280;42597;40.636;0.278;2022-09-03T18:00:01;96930.06;;;24.41;60.97
56719;BME280;42597;40.636;0.278;2022-09-03T18:16:14;96919.19;;;25.07;60.46
56719;BME280;42597;40.636;0.278;2022-09-03T18:18:48;96918.34;;;24.97;60.79
56719;BME280;42597;40.636;0.278;2022-09-03T18:21:23;96918.75;;;25.21;60.11
56719;BME280;42597;40.636;0.278;2022-09-03T18:24:40;96934.66;;;24.19;61.90